Time;durP1;ratioP1;P1;durP2;ratioP2;P2;SDS_P1;SDS_P2;PMS_P1;PMS_P2;Temp;Humidity;BMP_temperature;BMP_pressure;BME280_temperature;BME280_humidity;BME280_pressure;Samples;Min_cycle;Max_cycle;Signal;HPM_P1;HPM_P2
2023/05/20 00:01:52;;;;;;;13.95;5.70;;;11.10;99.90;;;;;;5113820;28;20040;-63
2023/05/20 00:04:19;;;;;;;10.23;5.20;;;11.10;99.90;;;;;;5113659;28;20114;-63
2023/05/20 00:06:46;;;;;;;15.30;5.15;;;11.10;99.90;;;;;;5112684;28;20042;-63
2023/05/20 00:09:13;;;;;;;16.55;6.75;;;11.00;99.90;;;;;;5112683;28;20093;-64
2023/05/20 00:11:39;;;;;;;12.30;5.65;;;11.00;99.90;;;;;;5113118;28;20126;-63
2023/05/20 00:14:06;;;;;;;13.65;5.70;;;11.00;99.90;;;;;;5113764;28;20097;-63
2023/05/20 00:16:33;;;;;;;12.18;5.75;;;10.90;99.90;;;;;;5113676;28;20126;-63
2023/05/20 00:19:00;;;;;;;16.83;5.63;;;10.90;99.90;;;;;;5098060;28;20059;-63
2023/05/20 00:21:28;;;;;;;12.20;5.72;;;10.80;99.90;;;;;;5093886;28;20140;-63
2023/05/20 00:23:55;;;;;;;12.82;5.97;;;10.80;99.90;;;;;;5093991;28;20038;-63
2023/05/20 00:26:22;;;;;;;13.90;6.13;;;10.80;99.90;;;;;;5094327;28;20145;-63
2023/05/20 00:28:53;;;;;;;15.30;6.22;;;10.70;99.90;;;;;;5094056;28;20040;-66
2023/05/20 00:31:20;;;;;;;11.30;5.75;;;10.70;99.90;;;;;;5075834;28;20071;-63
2023/05/20 00:33:47;;;;;;;14.05;6.15;;;10.70;99.90;;;;;;5075818;28;20534;-63
2023/05/20 00:36:14;;;;;;;11.75;5.80;;;10.60;99.90;;;;;;5093720;28;20036;-63
2023/05/20 00:38:41;;;;;;;16.45;6.03;;;10.60;99.90;;;;;;5075709;28;20044;-62
2023/05/20 00:41:08;;;;;;;14.90;6.45;;;10.60;99.90;;;;;;5093847;28;20040;-63
2023/05/20 00:43:34;;;;;;;15.85;6.50;;;10.50;99.90;;;;;;5059127;28;20040;-63
2023/05/20 00:46:01;;;;;;;15.95;6.47;;;10.50;99.90;;;;;;5075642;28;20046;-63
2023/05/20 00:48:28;;;;;;;11.65;6.05;;;10.50;99.90;;;;;;5093879;28;20094;-63
2023/05/20 00:50:55;;;;;;;15.30;6.50;;;10.50;99.90;;;;;;5093529;28;20085;-63
2023/05/20 00:53:22;;;;;;;15.10;6.28;;;10.40;99.90;;;;;;5093703;28;20482;-62
2023/05/20 00:55:48;;;;;;;14.23;6.90;;;10.30;99.90;;;;;;5075465;28;20050;-63
2023/05/20 00:58:15;;;;;;;12.15;6.68;;;10.20;99.90;;;;;;5075264;28;20036;-63
2023/05/20 01:00:42;;;;;;;14.25;6.95;;;10.20;99.90;;;;;;5075250;28;20040;-63
2023/05/20 01:03:09;;;;;;;16.42;6.65;;;10.20;99.90;;;;;;5075503;28;20047;-63
2023/05/20 01:05:36;;;;;;;17.35;6.82;;;10.10;99.90;;;;;;5093525;28;20040;-62
2023/05/20 01:08:07;;;;;;;12.45;6.13;;;10.10;99.90;;;;;;5093469;28;20071;-63
2023/05/20 01:10:33;;;;;;;17.25;6.57;;;10.10;99.90;;;;;;5093283;28;20047;-63
2023/05/20 01:13:00;;;;;;;17.38;6.95;;;10.10;99.90;;;;;;5075327;28;20052;-63
2023/05/20 01:15:27;;;;;;;11.48;6.15;;;10.10;99.90;;;;;;5093502;28;20109;-63
2023/05/20 01:17:56;;;;;;;11.98;6.65;;;10.00;99.90;;;;;;5093311;28;20047;-63
2023/05/20 01:20:23;;;;;;;18.27;7.53;;;10.00;99.90;;;;;;5058597;28;20040;-62
2023/05/20 01:22:50;;;;;;;13.15;7.35;;;10.00;99.90;;;;;;5075111;28;20055;-62
2023/05/20 01:25:17;;;;;;;16.92;7.18;;;10.00;99.90;;;;;;5097514;28;20114;-63
2023/05/20 01:27:45;;;;;;;18.00;7.47;;;9.90;99.90;;;;;;5097396;28;20395;-62
2023/05/20 01:30:13;;;;;;;14.65;6.70;;;9.90;99.90;;;;;;5097327;28;20120;-63
2023/05/20 01:32:39;;;;;;;14.30;6.70;;;9.80;99.90;;;;;;5079098;28;20093;-63
2023/05/20 01:35:06;;;;;;;20.60;7.50;;;9.80;99.90;;;;;;5097377;28;20093;-62
2023/05/20 01:37:33;;;;;;;18.92;7.07;;;9.80;99.90;;;;;;5078985;28;20043;-62
2023/05/20 01:40:00;;;;;;;13.40;7.32;;;9.70;99.90;;;;;;5078817;28;20040;-62
2023/05/20 01:42:27;;;;;;;14.98;7.25;;;9.70;99.90;;;;;;5078967;28;20040;-62
2023/05/20 01:44:55;;;;;;;13.98;6.60;;;9.60;99.90;;;;;;5097110;28;20093;-62
2023/05/20 01:47:21;;;;;;;18.60;7.45;;;9.60;99.90;;;;;;5078860;28;20044;-62
2023/05/20 01:49:51;;;;;;;14.35;6.85;;;9.60;99.90;;;;;;5078813;28;20055;-63
2023/05/20 01:52:18;;;;;;;14.23;7.13;;;9.50;99.90;;;;;;5078813;28;20086;-63
2023/05/20 01:54:49;;;;;;;17.00;7.03;;;9.50;99.90;;;;;;5095639;28;20046;-62
2023/05/20 01:57:16;;;;;;;13.55;6.43;;;9.40;99.90;;;;;;5096970;28;20077;-62
2023/05/20 01:59:43;;;;;;;17.52;7.63;;;9.40;99.90;;;;;;5062223;28;20379;-63
2023/05/20 02:02:10;;;;;;;17.55;7.68;;;9.40;99.90;;;;;;5078330;28;20044;-63
2023/05/20 02:04:37;;;;;;;13.68;7.10;;;9.40;99.90;;;;;;5105900;28;20039;-63
2023/05/20 02:07:05;;;;;;;13.95;7.28;;;9.40;99.90;;;;;;5098036;28;20047;-62
2023/05/20 02:09:31;;;;;;;17.35;7.13;;;9.40;99.90;;;;;;5097781;28;20043;-63
2023/05/20 02:11:58;;;;;;;17.13;7.13;;;9.30;99.90;;;;;;5115902;28;20040;-63
2023/05/20 02:14:25;;;;;;;15.15;6.38;;;9.30;99.90;;;;;;5097849;28;20070;-62
2023/05/20 02:16:52;;;;;;;13.48;6.90;;;9.30;99.90;;;;;;5097526;28;20043;-62
2023/05/20 02:19:22;;;;;;;11.75;7.30;;;9.30;99.90;;;;;;5090711;28;20360;-62
2023/05/20 02:21:50;;;;;;;16.45;6.78;;;9.30;99.90;;;;;;5061424;28;20055;-62
2023/05/20 02:24:17;;;;;;;13.98;6.85;;;9.30;99.90;;;;;;5096492;28;20040;-62
2023/05/20 02:26:44;;;;;;;11.40;6.88;;;9.30;99.90;;;;;;5078040;28;20050;-62
2023/05/20 02:29:11;;;;;;;17.50;7.25;;;9.30;99.90;;;;;;5061616;28;20039;-62
2023/05/20 02:31:38;;;;;;;17.70;7.82;;;9.20;99.90;;;;;;5077988;28;20075;-63
2023/05/20 02:34:05;;;;;;;18.25;7.45;;;9.20;99.90;;;;;;5095635;28;20098;-62
2023/05/20 02:36:31;;;;;;;13.48;7.15;;;9.20;99.90;;;;;;5077678;28;20048;-62
2023/05/20 02:39:00;;;;;;;16.23;7.45;;;9.20;99.90;;;;;;5061578;28;20032;-62
2023/05/20 02:41:27;;;;;;;20.83;8.30;;;9.20;99.90;;;;;;5095939;28;20512;-63
2023/05/20 02:43:54;;;;;;;17.45;7.75;;;9.10;99.90;;;;;;5095818;28;20053;-62
2023/05/20 02:46:20;;;;;;;20.65;7.78;;;9.00;99.90;;;;;;5077735;28;20074;-62
2023/05/20 02:48:47;;;;;;;17.25;8.00;;;9.00;99.90;;;;;;5077632;28;20048;-62
2023/05/20 02:51:14;;;;;;;18.10;7.55;;;8.90;99.90;;;;;;5077492;28;20051;-63
2023/05/20 02:53:41;;;;;;;15.35;7.65;;;8.90;99.90;;;;;;5095741;28;20466;-62
2023/05/20 02:56:08;;;;;;;14.27;7.10;;;8.90;99.90;;;;;;5077549;28;20085;-62
2023/05/20 02:58:34;;;;;;;22.38;8.30;;;8.90;99.90;;;;;;5095487;28;20044;-62
2023/05/20 03:01:01;;;;;;;19.33;7.82;;;9.00;99.90;;;;;;5077371;28;20094;-62
2023/05/20 03:03:28;;;;;;;16.13;7.20;;;8.90;99.90;;;;;;5095653;28;20036;-62
2023/05/20 03:05:55;;;;;;;18.73;7.28;;;8.90;99.90;;;;;;5077354;28;20097;-62
2023/05/20 03:08:22;;;;;;;21.05;8.15;;;9.00;99.90;;;;;;5077355;28;20070;-62
2023/05/20 03:10:49;;;;;;;14.10;7.68;;;8.90;99.90;;;;;;5077295;28;20074;-63
2023/05/20 03:13:16;;;;;;;16.33;8.32;;;9.00;99.90;;;;;;5077258;28;20036;-63
2023/05/20 03:15:44;;;;;;;17.35;7.43;;;9.00;99.90;;;;;;5077402;28;20044;-63
2023/05/20 03:18:14;;;;;;;15.93;7.57;;;9.10;99.90;;;;;;5077073;28;20039;-63
2023/05/20 03:20:41;;;;;;;15.85;7.03;;;9.10;99.90;;;;;;5093894;28;20074;-63
2023/05/20 03:23:08;;;;;;;16.50;7.50;;;9.10;99.90;;;;;;5076978;28;20048;-63
2023/05/20 03:25:35;;;;;;;13.70;7.07;;;9.20;99.90;;;;;;5060398;28;20135;-63
2023/05/20 03:28:02;;;;;;;14.48;7.25;;;9.20;99.90;;;;;;5095141;28;20044;-63
2023/05/20 03:30:30;;;;;;;14.02;7.03;;;9.30;99.90;;;;;;5076625;28;20108;-63
2023/05/20 03:32:57;;;;;;;19.05;7.75;;;9.30;99.90;;;;;;5076793;28;20040;-63
2023/05/20 03:35:24;;;;;;;17.98;7.25;;;9.40;99.90;;;;;;5076694;28;20051;-63
2023/05/20 03:37:52;;;;;;;16.30;7.03;;;9.30;99.90;;;;;;5076532;28;20044;-63
2023/05/20 03:40:21;;;;;;;14.52;7.00;;;9.40;99.90;;;;;;5094743;28;20056;-63
2023/05/20 03:42:49;;;;;;;17.08;7.50;;;9.40;99.90;;;;;;5076725;28;20042;-63
2023/05/20 03:45:18;;;;;;;15.02;6.78;;;9.40;99.90;;;;;;5076250;28;20092;-63
2023/05/20 03:48:02;;;;;;;17.42;8.73;;;9.30;99.90;;;;;;5073410;28;20116;-64
2023/05/20 03:50:31;;;;;;;14.38;6.82;;;9.40;99.90;;;;;;5080984;28;20055;-63
2023/05/20 03:52:59;;;;;;;14.68;7.25;;;9.40;99.90;;;;;;5076626;28;20074;-63
2023/05/20 03:55:31;;;;;;;12.52;6.75;;;9.40;99.90;;;;;;5076705;28;20044;-63
2023/05/20 03:58:00;;;;;;;12.85;7.53;;;9.40;99.90;;;;;;5076315;28;20047;-63
2023/05/20 04:00:29;;;;;;;22.30;8.60;;;9.40;99.90;;;;;;5076266;28;20123;-63
2023/05/20 04:02:56;;;;;;;14.70;7.43;;;9.40;99.90;;;;;;5095714;28;20088;-63
2023/05/20 04:05:24;;;;;;;21.95;8.65;;;9.30;99.90;;;;;;5095562;28;20565;-63
2023/05/20 04:07:51;;;;;;;19.02;9.13;;;9.30;99.90;;;;;;5092550;28;20051;-63
2023/05/20 04:10:20;;;;;;;19.38;8.25;;;9.20;99.90;;;;;;5075807;28;20056;-63
2023/05/20 04:12:49;;;;;;;17.52;8.32;;;9.20;99.90;;;;;;5069808;28;20055;-63
2023/05/20 04:15:16;;;;;;;19.92;8.75;;;9.20;99.90;;;;;;5076424;28;20135;-63
2023/05/20 04:17:52;;;;;;;;;;;9.30;99.90;;;;;;5076370;28;20054;-63
2023/05/20 04:20:19;;;;;;;18.70;9.23;;;9.20;99.90;;;;;;5076312;28;19941;-62
2023/05/20 04:22:47;;;;;;;20.85;8.25;;;9.30;99.90;;;;;;5072283;28;20086;-63
2023/05/20 04:25:13;;;;;;;17.85;9.00;;;9.30;99.90;;;;;;5056078;28;20041;-63
2023/05/20 04:27:40;;;;;;;18.45;8.48;;;9.40;99.90;;;;;;5072894;28;20071;-63
2023/05/20 04:30:08;;;;;;;20.02;8.57;;;9.40;99.90;;;;;;5072475;28;20044;-63
2023/05/20 04:32:38;;;;;;;18.52;9.13;;;9.40;99.90;;;;;;5072773;28;20423;-62
2023/05/20 04:35:10;;;;;;;17.67;9.32;;;9.40;99.90;;;;;;5073818;28;20086;-63
2023/05/20 04:37:41;;;;;;;19.63;9.02;;;9.40;99.90;;;;;;5072502;28;20554;-63
2023/05/20 04:40:09;;;;;;;17.52;9.35;;;9.40;99.90;;;;;;5072346;28;20049;-64
2023/05/20 04:42:36;;;;;;;19.15;9.82;;;9.40;99.90;;;;;;5072556;28;20054;-62
2023/05/20 04:45:04;;;;;;;20.13;9.55;;;9.50;99.90;;;;;;5073780;28;20533;-63
2023/05/20 04:47:37;;;;;;;22.83;9.13;;;9.60;99.90;;;;;;5056230;28;20411;-63
2023/05/20 04:50:04;;;;;;;20.00;9.52;;;9.60;99.90;;;;;;5072269;28;20048;-64
2023/05/20 04:52:32;;;;;;;17.58;9.00;;;9.70;99.90;;;;;;5072314;28;20048;-63
2023/05/20 04:55:00;;;;;;;18.85;9.82;;;9.70;99.90;;;;;;5072182;28;20135;-63
2023/05/20 04:57:27;;;;;;;18.67;9.50;;;9.60;99.90;;;;;;5074901;28;20398;-63
2023/05/20 04:59:57;;;;;;;16.45;10.32;;;9.60;99.90;;;;;;5076465;28;20036;-63
2023/05/20 05:02:25;;;;;;;19.80;9.52;;;9.60;99.90;;;;;;5076532;28;20048;-64
2023/05/20 05:04:52;;;;;;;14.68;9.63;;;9.60;99.90;;;;;;5076647;28;20102;-63
2023/05/20 05:07:20;;;;;;;25.65;10.63;;;9.70;99.90;;;;;;5076356;28;20491;-63
2023/05/20 05:09:47;;;;;;;19.70;9.65;;;9.80;99.90;;;;;;5075332;28;20036;-63
2023/05/20 05:12:14;;;;;;;22.65;9.63;;;9.80;99.90;;;;;;5076242;28;20040;-62
2023/05/20 05:14:41;;;;;;;18.60;9.38;;;9.80;99.90;;;;;;5076198;28;20045;-63
2023/05/20 05:17:08;;;;;;;19.77;9.60;;;9.80;99.90;;;;;;5076065;28;20048;-62
2023/05/20 05:19:35;;;;;;;20.48;9.65;;;9.80;99.90;;;;;;5074990;28;20037;-63
2023/05/20 05:22:02;;;;;;;17.70;9.73;;;9.90;99.90;;;;;;5075940;28;20071;-63
2023/05/20 05:24:29;;;;;;;21.17;9.57;;;10.00;99.90;;;;;;5076074;28;20064;-63
2023/05/20 05:26:56;;;;;;;17.52;9.65;;;9.90;99.90;;;;;;5075908;28;20131;-62
2023/05/20 05:29:23;;;;;;;16.70;9.32;;;9.90;99.90;;;;;;5075968;28;20044;-63
2023/05/20 05:31:50;;;;;;;22.33;9.38;;;9.90;99.90;;;;;;5074819;28;20045;-63
2023/05/20 05:34:17;;;;;;;21.55;10.90;;;9.90;99.90;;;;;;5075976;28;20047;-63
2023/05/20 05:36:44;;;;;;;22.00;9.40;;;10.00;99.90;;;;;;5077037;28;20037;-63
2023/05/20 05:39:11;;;;;;;20.75;10.50;;;10.10;99.90;;;;;;5076946;28;20101;-63
2023/05/20 05:41:38;;;;;;;18.77;9.60;;;10.10;99.90;;;;;;5075543;28;20048;-63
2023/05/20 05:44:06;;;;;;;21.10;9.90;;;10.10;99.90;;;;;;5076981;28;20130;-62
2023/05/20 05:46:33;;;;;;;17.80;9.50;;;10.10;99.90;;;;;;5075593;28;20102;-63
2023/05/20 05:49:00;;;;;;;21.27;9.88;;;10.10;99.90;;;;;;5075701;28;20072;-63
2023/05/20 05:51:27;;;;;;;16.70;9.45;;;10.10;99.90;;;;;;5076722;28;20036;-63
2023/05/20 05:53:56;;;;;;;20.58;9.60;;;10.20;99.90;;;;;;5069502;28;20122;-63
2023/05/20 05:56:22;;;;;;;21.15;9.30;;;10.20;99.90;;;;;;5076731;28;20043;-63
2023/05/20 05:58:49;;;;;;;19.95;9.80;;;10.20;99.90;;;;;;5075419;28;20094;-63
2023/05/20 06:01:16;;;;;;;20.73;10.75;;;10.20;99.90;;;;;;5069007;28;20040;-63
2023/05/20 06:03:43;;;;;;;20.42;9.40;;;10.20;99.90;;;;;;5075329;28;20475;-62
2023/05/20 06:06:10;;;;;;;22.67;9.75;;;10.20;99.90;;;;;;5075405;28;20047;-62
2023/05/20 06:08:37;;;;;;;21.90;9.52;;;10.30;99.90;;;;;;5074929;28;20113;-62
2023/05/20 06:11:05;;;;;;;21.70;9.27;;;10.30;99.90;;;;;;5074698;28;20040;-63
2023/05/20 06:13:32;;;;;;;14.98;9.55;;;10.30;99.90;;;;;;5074888;28;20044;-63
2023/05/20 06:15:59;;;;;;;21.00;9.82;;;10.30;99.90;;;;;;5075077;28;20044;-63
2023/05/20 06:18:26;;;;;;;18.30;9.43;;;10.40;99.90;;;;;;5076183;28;20036;-62
2023/05/20 06:20:56;;;;;;;19.65;9.57;;;10.40;99.90;;;;;;5074659;28;20086;-62
2023/05/20 06:23:23;;;;;;;19.55;9.90;;;10.40;99.90;;;;;;5078315;28;20044;-63
2023/05/20 06:25:56;;;;;;;20.40;9.88;;;10.40;99.90;;;;;;5078435;28;20123;-63
2023/05/20 06:28:22;;;;;;;21.13;9.88;;;10.40;99.90;;;;;;5077995;28;20079;-62
2023/05/20 06:30:49;;;;;;;20.50;10.05;;;10.50;99.90;;;;;;5078237;28;20063;-63
2023/05/20 06:33:18;;;;;;;21.00;9.70;;;10.60;99.90;;;;;;5096157;28;20040;-62
2023/05/20 06:35:45;;;;;;;18.10;10.00;;;10.60;99.90;;;;;;5096181;28;20044;-63
2023/05/20 06:38:12;;;;;;;23.67;10.15;;;10.70;99.90;;;;;;5096026;28;20435;-62
2023/05/20 06:40:39;;;;;;;16.77;9.63;;;10.70;99.90;;;;;;5077943;28;20036;-63
2023/05/20 06:43:05;;;;;;;17.90;9.40;;;10.70;99.90;;;;;;5096262;28;20039;-63
2023/05/20 06:46:02;;;;;;;19.10;10.10;;;10.80;99.90;;;;;;5082341;28;20050;-63
2023/05/20 06:48:37;;;;;;;18.38;9.02;;;10.90;99.90;;;;;;5097452;28;20055;-63
2023/05/20 06:51:06;;;;;;;17.17;9.27;;;10.90;99.90;;;;;;5074633;28;20052;-63
2023/05/20 06:53:33;;;;;;;23.45;9.95;;;10.90;99.90;;;;;;5077969;28;20066;-63
2023/05/20 06:56:00;;;;;;;24.52;10.00;;;11.00;99.90;;;;;;5097469;28;20054;-63
2023/05/20 06:58:26;;;;;;;19.60;9.85;;;11.00;99.90;;;;;;5094260;28;20491;-63
2023/05/20 07:00:55;;;;;;;23.25;9.23;;;11.10;99.90;;;;;;5077563;28;20044;-63
2023/05/20 07:03:23;;;;;;;18.98;9.00;;;11.20;99.90;;;;;;5070967;28;20042;-63
2023/05/20 07:05:50;;;;;;;20.83;9.95;;;11.30;99.90;;;;;;5097094;28;20059;-63
2023/05/20 07:08:18;;;;;;;17.27;8.70;;;11.20;99.90;;;;;;5071241;28;20040;-63
2023/05/20 07:10:45;;;;;;;21.58;9.38;;;11.20;99.90;;;;;;5087268;28;20044;-63
2023/05/20 07:13:16;;;;;;;16.23;9.15;;;11.30;99.90;;;;;;5071843;28;20441;-62
2023/05/20 07:15:42;;;;;;;16.55;8.82;;;11.40;99.90;;;;;;5077295;28;20090;-62
2023/05/20 07:18:10;;;;;;;21.23;9.63;;;11.40;99.90;;;;;;5077256;28;20044;-63
2023/05/20 07:20:37;;;;;;;19.90;9.40;;;11.50;99.90;;;;;;5076324;28;20127;-63
2023/05/20 07:23:10;;;;;;;18.75;8.38;;;11.60;99.90;;;;;;5077030;28;20055;-63
2023/05/20 07:25:41;;;;;;;22.25;9.07;;;11.70;99.90;;;;;;5077227;28;20055;-63
2023/05/20 07:28:08;;;;;;;20.92;9.43;;;11.70;99.90;;;;;;5076858;28;20083;-63
2023/05/20 07:30:35;;;;;;;21.17;8.68;;;11.70;99.90;;;;;;5076865;28;20040;-63
2023/05/20 07:33:14;;;;;;;19.27;9.55;;;11.80;99.90;;;;;;5076836;28;20090;-63
2023/05/20 07:35:40;;;;;;;22.40;8.77;;;12.00;99.90;;;;;;5076983;28;20044;-62
2023/05/20 07:38:07;;;;;;;21.17;9.30;;;12.10;99.90;;;;;;5094878;28;20039;-63
2023/05/20 07:40:35;;;;;;;18.40;8.32;;;12.20;99.90;;;;;;5076674;28;20560;-63
2023/05/20 07:43:02;;;;;;;15.95;8.23;;;12.30;99.90;;;;;;5076604;28;20047;-63
2023/05/20 07:45:29;;;;;;;16.60;8.73;;;12.30;99.90;;;;;;5076232;28;20067;-63
2023/05/20 07:47:56;;;;;;;15.80;8.23;;;12.40;99.90;;;;;;5059878;28;20044;-63
2023/05/20 07:50:23;;;;;;;18.60;8.15;;;12.50;99.90;;;;;;5060139;28;20051;-63
2023/05/20 07:52:51;;;;;;;20.95;8.98;;;12.40;99.90;;;;;;5094886;28;20399;-62
2023/05/20 07:55:24;;;;;;;18.92;8.60;;;12.50;99.90;;;;;;5076889;28;20062;-62
2023/05/20 07:57:51;;;;;;;17.83;8.13;;;12.70;99.90;;;;;;5076493;28;20043;-63
2023/05/20 08:00:20;;;;;;;22.08;8.13;;;12.80;99.90;;;;;;5094627;28;20054;-62
2023/05/20 08:02:47;;;;;;;18.70;8.30;;;12.90;99.90;;;;;;5094663;28;20077;-62
2023/05/20 08:05:21;;;;;;;18.40;7.75;;;13.00;99.90;;;;;;5076394;28;20042;-63
2023/05/20 08:07:48;;;;;;;20.45;8.07;;;13.00;99.90;;;;;;5094395;28;20036;-63
2023/05/20 08:10:16;;;;;;;20.27;7.82;;;13.00;99.90;;;;;;5076095;28;20043;-63
2023/05/20 08:12:44;;;;;;;18.90;8.23;;;13.00;99.90;;;;;;5076156;28;20048;-65
2023/05/20 08:15:14;;;;;;;20.58;8.50;;;13.20;99.90;;;;;;5076135;28;20051;-63
2023/05/20 08:17:42;;;;;;;17.85;7.70;;;13.30;99.90;;;;;;5094270;28;20044;-63
2023/05/20 08:20:09;;;;;;;17.80;7.78;;;13.40;99.90;;;;;;5074962;28;20040;-63
2023/05/20 08:22:36;;;;;;;19.73;8.10;;;13.50;99.90;;;;;;5059087;28;20048;-63
2023/05/20 08:25:03;;;;;;;19.02;7.57;;;13.50;99.90;;;;;;5094218;28;20097;-63
2023/05/20 08:27:30;;;;;;;17.65;7.78;;;13.60;99.90;;;;;;5076251;28;20463;-62
2023/05/20 08:29:57;;;;;;;15.80;6.80;;;13.60;99.90;;;;;;5075940;28;20044;-64
2023/05/20 08:32:26;;;;;;;17.10;7.18;;;13.70;99.90;;;;;;5075581;28;20043;-62
2023/05/20 08:34:53;;;;;;;14.13;6.57;;;13.70;99.90;;;;;;5075877;28;20449;-61
2023/05/20 08:37:20;;;;;;;14.73;6.85;;;13.70;99.90;;;;;;5076459;28;20353;-61
2023/05/20 08:39:48;;;;;;;18.42;6.85;;;13.80;99.90;;;;;;5074497;28;20082;-62
2023/05/20 08:42:15;;;;;;;17.55;6.65;;;13.90;99.90;;;;;;5075522;28;20040;-63
2023/05/20 08:44:42;;;;;;;18.13;6.30;;;13.90;99.90;;;;;;5075983;28;20044;-62
2023/05/20 08:47:10;;;;;;;16.77;6.28;;;13.90;99.90;;;;;;5075702;28;20131;-62
2023/05/20 08:49:37;;;;;;;17.52;6.80;;;13.80;99.90;;;;;;5075593;28;20078;-62
2023/05/20 08:52:03;;;;;;;14.32;6.35;;;13.80;99.90;;;;;;5093652;28;20040;-63
2023/05/20 08:54:32;;;;;;;16.67;6.43;;;13.80;99.90;;;;;;5093748;28;20479;-62
2023/05/20 08:56:59;;;;;;;13.57;6.22;;;13.80;99.90;;;;;;5093729;28;20036;-63
2023/05/20 08:59:26;;;;;;;14.75;6.30;;;13.90;99.90;;;;;;5093947;28;20036;-63
2023/05/20 09:01:53;;;;;;;15.63;6.30;;;13.80;99.90;;;;;;5093673;28;20456;-62
2023/05/20 09:04:19;;;;;;;13.90;6.68;;;13.80;99.90;;;;;;5093509;28;20387;-62
2023/05/20 09:06:46;;;;;;;15.20;6.50;;;13.90;99.90;;;;;;5093580;28;20032;-62
2023/05/20 09:09:13;;;;;;;18.75;6.22;;;14.00;99.90;;;;;;5093805;28;20355;-62
2023/05/20 09:11:40;;;;;;;16.08;5.75;;;14.10;99.90;;;;;;5093558;28;20044;-62
2023/05/20 09:14:07;;;;;;;15.18;6.53;;;14.20;99.90;;;;;;5075877;28;20044;-63
2023/05/20 09:16:34;;;;;;;13.05;6.25;;;14.30;99.90;;;;;;5093650;28;20051;-63
2023/05/20 09:19:01;;;;;;;13.93;5.97;;;14.50;99.90;;;;;;5098606;28;20471;-62
2023/05/20 09:21:27;;;;;;;17.48;6.43;;;14.60;99.90;;;;;;5075351;28;20055;-62
2023/05/20 09:23:56;;;;;;;13.40;6.55;;;14.60;99.90;;;;;;5093732;28;20036;-62
2023/05/20 09:26:23;;;;;;;12.93;6.57;;;14.80;99.90;;;;;;5075605;28;20040;-63
2023/05/20 09:28:52;;;;;;;13.82;5.90;;;14.90;99.90;;;;;;5093420;28;20055;-63
2023/05/20 09:31:19;;;;;;;15.65;5.88;;;15.00;99.90;;;;;;5093426;28;20048;-62
2023/05/20 09:33:46;;;;;;;12.65;5.50;;;15.20;99.90;;;;;;5093566;28;20049;-63
2023/05/20 09:36:13;;;;;;;14.77;5.45;;;15.20;99.90;;;;;;5093319;28;20113;-63
2023/05/20 09:38:42;;;;;;;14.15;5.30;;;15.40;99.90;;;;;;5093365;28;20550;-62
2023/05/20 09:41:09;;;;;;;11.75;4.88;;;15.50;99.90;;;;;;5093159;28;20036;-62
2023/05/20 09:43:36;;;;;;;12.18;4.72;;;15.60;99.90;;;;;;5093499;28;20171;-63
2023/05/20 09:46:03;;;;;;;12.93;5.03;;;15.70;99.90;;;;;;5079061;28;20040;-62
2023/05/20 09:48:30;;;;;;;17.23;5.22;;;15.90;99.90;;;;;;5097284;28;20577;-62
2023/05/20 09:51:01;;;;;;;15.77;5.10;;;16.00;99.90;;;;;;5097161;28;20040;-65
2023/05/20 09:53:28;;;;;;;12.07;4.57;;;16.00;99.90;;;;;;5096909;28;20115;-62
2023/05/20 09:55:55;;;;;;;13.63;4.90;;;16.10;99.90;;;;;;5097137;28;20043;-62
2023/05/20 09:58:22;;;;;;;12.38;4.55;;;16.20;99.90;;;;;;5097747;28;20036;-62
2023/05/20 10:00:48;;;;;;;11.85;5.13;;;16.50;99.90;;;;;;5096736;28;20032;-62
2023/05/20 10:03:15;;;;;;;8.63;4.43;;;16.60;99.70;;;;;;5096818;28;20043;-63
2023/05/20 10:05:43;;;;;;;12.77;4.65;;;16.70;99.90;;;;;;5096925;28;20380;-63
2023/05/20 10:08:09;;;;;;;12.40;4.47;;;16.60;99.30;;;;;;5096844;28;20051;-63
2023/05/20 10:10:36;;;;;;;12.10;4.55;;;16.80;99.10;;;;;;5096634;28;20101;-64
2023/05/20 10:13:03;;;;;;;16.80;4.13;;;16.90;99.10;;;;;;5096592;28;20091;-63
2023/05/20 10:15:30;;;;;;;11.35;4.20;;;17.20;98.80;;;;;;5096794;28;20146;-62
2023/05/20 10:17:57;;;;;;;11.70;4.07;;;17.30;98.30;;;;;;5096575;28;20035;-62
2023/05/20 10:20:24;;;;;;;9.05;3.97;;;17.30;97.40;;;;;;5095192;28;20541;-62
2023/05/20 10:22:50;;;;;;;10.95;3.67;;;17.40;97.00;;;;;;5096265;28;20048;-65
2023/05/20 10:25:17;;;;;;;10.15;3.85;;;17.50;97.40;;;;;;5096561;28;20040;-63
2023/05/20 10:27:44;;;;;;;12.55;4.00;;;17.50;97.20;;;;;;5096409;28;20433;-63
2023/05/20 10:30:11;;;;;;;14.05;3.92;;;17.60;97.00;;;;;;5096214;28;20117;-62
2023/05/20 10:32:38;;;;;;;11.35;3.83;;;17.70;97.00;;;;;;5078366;28;20079;-63
2023/05/20 10:35:05;;;;;;;11.63;3.80;;;17.80;97.00;;;;;;5096309;28;20049;-64
2023/05/20 10:37:32;;;;;;;11.80;3.90;;;17.90;96.60;;;;;;5096214;28;20036;-62
2023/05/20 10:39:59;;;;;;;8.60;3.30;;;18.00;96.20;;;;;;5077975;28;20047;-63
2023/05/20 10:42:26;;;;;;;9.05;3.47;;;18.10;96.30;;;;;;5095983;28;20114;-63
2023/05/20 10:44:53;;;;;;;9.15;3.40;;;18.20;95.60;;;;;;5096019;28;20478;-62
2023/05/20 10:47:20;;;;;;;13.07;4.20;;;18.20;95.60;;;;;;5095840;28;20043;-63
2023/05/20 10:49:52;;;;;;;10.73;3.60;;;18.30;95.10;;;;;;5096023;28;20044;-62
2023/05/20 10:52:19;;;;;;;12.70;3.83;;;18.30;95.60;;;;;;5096020;28;20043;-63
2023/05/20 10:54:45;;;;;;;9.80;3.50;;;18.30;95.40;;;;;;5095853;28;20047;-63
2023/05/20 10:57:16;;;;;;;12.98;3.90;;;18.20;95.20;;;;;;5078499;28;20048;-63
2023/05/20 10:59:43;;;;;;;8.15;3.30;;;18.20;94.90;;;;;;5095743;28;20449;-62
2023/05/20 11:02:11;;;;;;;8.65;3.40;;;18.10;95.10;;;;;;5095824;28;20115;-63
2023/05/20 11:04:38;;;;;;;12.90;3.60;;;18.20;95.50;;;;;;5095610;28;20042;-63
2023/05/20 11:07:05;;;;;;;9.18;3.50;;;18.20;94.30;;;;;;5095455;28;20044;-62
2023/05/20 11:09:32;;;;;;;6.43;3.00;;;18.30;94.60;;;;;;5095713;28;20040;-62
2023/05/20 11:11:59;;;;;;;9.18;3.42;;;18.40;93.80;;;;;;5095631;28;20062;-63
2023/05/20 11:14:26;;;;;;;7.45;2.90;;;18.40;93.80;;;;;;5077481;28;20044;-63
2023/05/20 11:16:53;;;;;;;9.00;3.40;;;18.50;93.90;;;;;;5095626;28;20039;-62
2023/05/20 11:19:20;;;;;;;12.02;3.28;;;18.50;93.70;;;;;;5095346;28;20126;-62
2023/05/20 11:21:47;;;;;;;9.60;3.00;;;18.50;94.30;;;;;;5093350;28;20064;-63
2023/05/20 11:24:14;;;;;;;9.27;3.17;;;18.50;93.20;;;;;;5095394;28;20047;-63
2023/05/20 11:26:40;;;;;;;6.78;2.95;;;18.40;93.60;;;;;;5095286;28;20478;-63
2023/05/20 11:29:07;;;;;;;8.27;3.05;;;18.30;93.00;;;;;;5077036;28;20407;-63
2023/05/20 11:31:34;;;;;;;8.10;2.95;;;18.40;92.80;;;;;;5095019;28;20449;-63
2023/05/20 11:34:02;;;;;;;8.18;2.78;;;18.40;93.30;;;;;;5077214;28;20119;-63
2023/05/20 11:36:29;;;;;;;7.43;3.03;;;18.50;93.20;;;;;;5077102;28;20394;-66
2023/05/20 11:38:57;;;;;;;7.50;3.13;;;18.50;93.30;;;;;;5094950;28;20093;-63
2023/05/20 11:41:24;;;;;;;9.00;2.83;;;18.60;93.80;;;;;;5094859;28;20043;-63
2023/05/20 11:43:51;;;;;;;8.90;2.80;;;18.60;92.30;;;;;;5099389;28;20391;-63
2023/05/20 11:46:17;;;;;;;9.15;3.38;;;18.70;92.90;;;;;;5113253;28;20192;-63
2023/05/20 11:48:47;;;;;;;11.15;3.00;;;18.80;93.30;;;;;;5114361;28;20035;-63
2023/05/20 11:51:14;;;;;;;8.18;2.60;;;18.80;93.00;;;;;;5099634;28;20554;-64
2023/05/20 11:53:41;;;;;;;9.30;2.67;;;18.70;92.20;;;;;;5094703;28;20051;-64
2023/05/20 11:56:08;;;;;;;7.65;2.50;;;18.60;92.40;;;;;;5094783;28;20502;-64
2023/05/20 11:58:35;;;;;;;8.07;2.80;;;18.50;92.40;;;;;;5094561;28;20048;-64
2023/05/20 12:01:02;;;;;;;5.78;2.35;;;18.50;91.90;;;;;;5094457;28;20115;-64
2023/05/20 12:03:47;;;;;;;;;;;18.70;92.80;;;;;;5095144;28;20044;-64
2023/05/20 12:06:14;;;;;;;7.47;2.60;;;19.00;91.90;;;;;;5094244;28;19927;-64
2023/05/20 12:08:41;;;;;;;6.28;2.28;;;19.20;91.90;;;;;;5093673;28;20458;-64
2023/05/20 12:11:08;;;;;;;10.90;3.05;;;19.10;91.90;;;;;;5094241;28;20491;-65
2023/05/20 12:13:35;;;;;;;8.43;3.08;;;19.00;91.80;;;;;;5087600;28;20040;-64
2023/05/20 12:16:03;;;;;;;6.60;2.67;;;18.90;91.50;;;;;;5087510;28;20040;-64
2023/05/20 12:18:29;;;;;;;8.00;3.05;;;18.90;91.90;;;;;;5087958;28;20048;-63
2023/05/20 12:20:56;;;;;;;7.47;2.63;;;18.80;92.10;;;;;;5086208;28;20105;-64
2023/05/20 12:23:23;;;;;;;7.45;2.75;;;18.90;91.90;;;;;;5087620;28;20122;-64
2023/05/20 12:25:50;;;;;;;7.70;2.50;;;18.70;90.90;;;;;;5114016;28;20058;-64
2023/05/20 12:28:17;;;;;;;12.02;3.13;;;18.70;91.20;;;;;;5092389;28;20406;-64
2023/05/20 12:30:43;;;;;;;9.15;2.85;;;18.80;90.80;;;;;;5094020;28;20066;-64
2023/05/20 12:33:10;;;;;;;7.57;2.83;;;19.00;91.50;;;;;;5094242;28;20119;-64
2023/05/20 12:35:37;;;;;;;5.50;2.33;;;19.20;91.70;;;;;;5093818;28;20498;-64
2023/05/20 12:38:04;;;;;;;7.25;2.72;;;19.30;90.90;;;;;;5094026;28;20053;-64
2023/05/20 12:40:30;;;;;;;9.07;2.60;;;19.30;90.70;;;;;;5093783;28;20069;-64
2023/05/20 12:42:58;;;;;;;6.25;2.58;;;19.30;90.70;;;;;;5093732;28;20392;-63